LGKV/KVA METAR and TAF weather

Enter ICAO airport designator
Station Type Date Time Source
LGKV METAR 2019/02/17 07:20 UTC NOAA

LGKV 170720Z 00000KT CAVOK 02/M01 Q1028


Station Type Date Time Source
LGKV Decoded METAR 2019/02/17 07:20 UTC NOAA

Chrysoupoli Airport , Greece (LGKV) 40-59N 024-36E 5M
Feb 17, 2019 - 02:20 AM EST / 2019.02.17 0720 UTC
Wind: Calm:0
Visibility: greater than 7 mile(s):0
Temperature: 35 F (2 C)
Dew Point: 30 F (-1 C)
Relative Humidity: 80%
Pressure (altimeter): 30.36 in. Hg (1028 hPa)
ob: LGKV 170720Z 00000KT CAVOK 02/M01 Q1028
cycle: 7

Station Type Date Time Source
LGKV TAF 2012/09/21 03:06 UTC NOAA

TAF LGKV 210200Z 2103/2115 34015KT 9999 FEW020 SCT080 PROB30
TEMPO 2100/2106 6000 RA SCT015 BKN030 PROB30
TEMPO 2100/2103 3000 TSRA SCT015 FEW018CB BKN030


Example: see airport list